createdAt,value
2023-12-20T00:01:25.336Z,6.53
2023-12-20T00:03:53.320Z,6.51
2023-12-20T00:06:21.209Z,6.64
2023-12-20T00:08:49.257Z,6.55
2023-12-20T00:11:16.934Z,6.63
2023-12-20T00:13:53.449Z,6.64
2023-12-20T00:16:23.871Z,6.55
2023-12-20T00:18:54.706Z,6.53
2023-12-20T00:21:22.346Z,6.45
2023-12-20T00:23:50.039Z,6.52
2023-12-20T00:26:17.768Z,6.45
2023-12-20T00:28:45.361Z,6.55
2023-12-20T00:31:13.315Z,6.47
2023-12-20T00:33:45.413Z,6.51
2023-12-20T00:36:14.065Z,6.46
2023-12-20T00:38:42.275Z,6.44
2023-12-20T00:41:09.967Z,6.36
2023-12-20T00:43:38.197Z,6.40
2023-12-20T00:46:07.451Z,6.37
2023-12-20T00:48:35.072Z,6.35
2023-12-20T00:51:03.063Z,6.24
2023-12-20T00:53:30.829Z,6.30
2023-12-20T00:56:00.461Z,6.30
2023-12-20T00:58:29.599Z,6.19
2023-12-20T01:00:57.638Z,6.18
2023-12-20T01:03:25.980Z,6.12
2023-12-20T01:05:55.202Z,6.20
2023-12-20T01:08:23.084Z,6.14
2023-12-20T01:10:51.030Z,6.05
2023-12-20T01:13:19.057Z,6.03
2023-12-20T01:15:47.031Z,6.03
2023-12-20T01:18:15.415Z,5.99
2023-12-20T01:20:44.224Z,6.12
2023-12-20T01:23:14.686Z,6.02
2023-12-20T01:25:42.900Z,5.98
2023-12-20T01:28:10.894Z,5.98
2023-12-20T01:30:42.153Z,6.10
2023-12-20T01:33:13.219Z,6.02
2023-12-20T01:35:41.223Z,5.89
2023-12-20T01:38:10.817Z,5.81
2023-12-20T01:40:38.749Z,5.80
2023-12-20T01:43:11.179Z,5.83
2023-12-20T01:45:39.013Z,5.73
2023-12-20T01:48:08.165Z,5.64
2023-12-20T01:50:37.900Z,5.64
2023-12-20T01:53:07.804Z,5.65
2023-12-20T01:55:37.073Z,5.53
2023-12-20T01:58:05.574Z,5.44
2023-12-20T02:00:33.574Z,5.46
2023-12-20T02:03:04.003Z,5.42
2023-12-20T02:05:33.383Z,5.45
2023-12-20T02:08:01.428Z,5.42
2023-12-20T02:10:31.370Z,5.32
2023-12-20T02:12:58.859Z,5.30
2023-12-20T02:15:26.117Z,5.44
2023-12-20T02:17:53.610Z,5.34
2023-12-20T02:20:21.819Z,5.36
2023-12-20T02:22:49.015Z,5.36
2023-12-20T02:25:16.223Z,5.27
2023-12-20T02:27:43.635Z,5.27
2023-12-20T02:30:12.737Z,5.26
2023-12-20T02:32:40.043Z,5.34
2023-12-20T02:35:10.460Z,5.25
2023-12-20T02:37:40.657Z,5.20
2023-12-20T02:40:08.511Z,5.23
2023-12-20T02:42:35.631Z,5.13
2023-12-20T02:45:02.839Z,5.15
2023-12-20T02:47:31.195Z,5.08
2023-12-20T02:49:58.474Z,5.06
2023-12-20T02:52:25.896Z,5.02
2023-12-20T02:54:53.095Z,5.06
2023-12-20T02:57:20.285Z,5.04
2023-12-20T02:59:47.502Z,4.96
2023-12-20T03:02:14.787Z,4.96
2023-12-20T03:04:42.236Z,4.92
2023-12-20T03:07:09.446Z,5.04
2023-12-20T03:09:47.885Z,4.98
2023-12-20T03:12:23.739Z,5.06
2023-12-20T03:14:51.157Z,4.99
2023-12-20T03:17:18.296Z,4.98
2023-12-20T03:19:45.535Z,4.97
2023-12-20T03:22:12.735Z,4.96
2023-12-20T03:24:39.863Z,4.85
2023-12-20T03:27:07.057Z,4.84
2023-12-20T03:29:34.191Z,4.70
2023-12-20T03:32:01.423Z,4.67
2023-12-20T03:34:28.557Z,4.68
2023-12-20T03:36:55.895Z,4.70
2023-12-20T03:39:23.032Z,4.73
2023-12-20T03:41:50.090Z,4.70
2023-12-20T03:44:17.147Z,4.69
2023-12-20T03:46:44.204Z,4.73
2023-12-20T03:49:13.986Z,4.68
2023-12-20T03:51:41.398Z,4.60
2023-12-20T03:54:08.981Z,4.59
2023-12-20T03:56:36.192Z,4.59
2023-12-20T03:59:04.917Z,4.57
2023-12-20T04:01:32.090Z,4.45
2023-12-20T04:03:59.283Z,4.46
2023-12-20T04:06:26.653Z,4.39
2023-12-20T04:08:56.196Z,4.36
2023-12-20T04:11:25.853Z,4.29
2023-12-20T04:13:52.974Z,4.36
2023-12-20T04:16:22.561Z,4.27
2023-12-20T04:18:49.792Z,4.24
2023-12-20T04:21:16.926Z,4.26
2023-12-20T04:23:44.242Z,4.15
2023-12-20T04:26:11.826Z,4.07
2023-12-20T04:28:38.955Z,4.04
2023-12-20T04:31:08.909Z,3.99
2023-12-20T04:33:36.198Z,4.04
2023-12-20T04:36:03.435Z,4.13
2023-12-20T04:38:30.598Z,4.13
2023-12-20T04:40:58.043Z,4.11
2023-12-20T04:43:25.676Z,4.11
2023-12-20T04:45:56.370Z,4.16
2023-12-20T04:48:23.548Z,4.11
2023-12-20T04:50:53.895Z,4.16
2023-12-20T04:53:21.040Z,4.23
2023-12-20T04:55:50.718Z,4.08
2023-12-20T04:58:18.022Z,4.16
2023-12-20T05:00:45.297Z,4.19
2023-12-20T05:03:12.748Z,4.21
2023-12-20T05:05:40.561Z,4.13
2023-12-20T05:08:10.613Z,4.08
2023-12-20T05:10:41.656Z,4.02
2023-12-20T05:13:09.248Z,3.97
2023-12-20T05:15:39.532Z,3.86
2023-12-20T05:18:06.903Z,3.79
2023-12-20T05:20:36.022Z,3.75
2023-12-20T05:23:03.376Z,3.79
2023-12-20T05:25:30.710Z,3.83
2023-12-20T05:27:57.909Z,3.65
2023-12-20T05:30:25.406Z,3.86
2023-12-20T05:32:52.627Z,3.76
2023-12-20T05:35:20.583Z,3.86
2023-12-20T05:37:47.943Z,3.96
2023-12-20T05:40:15.355Z,3.99
2023-12-20T05:42:42.567Z,3.97
2023-12-20T05:45:10.651Z,4.15
2023-12-20T05:47:37.924Z,4.13
2023-12-20T05:50:05.437Z,4.16
2023-12-20T05:52:32.537Z,4.17
2023-12-20T05:55:02.541Z,4.23
2023-12-20T05:57:29.792Z,4.23
2023-12-20T05:59:57.088Z,4.29
2023-12-20T06:02:24.209Z,4.28
2023-12-20T06:04:51.345Z,4.29
2023-12-20T06:07:18.680Z,4.25
2023-12-20T06:09:46.214Z,4.29
2023-12-20T06:12:13.349Z,4.36
2023-12-20T06:14:40.548Z,4.24
2023-12-20T06:17:08.024Z,4.34
2023-12-20T06:19:35.199Z,4.30
2023-12-20T06:22:02.360Z,4.37
2023-12-20T06:24:29.638Z,4.40
2023-12-20T06:26:56.882Z,4.44
2023-12-20T06:29:24.007Z,4.35
2023-12-20T06:31:51.234Z,4.39
2023-12-20T06:34:18.631Z,4.37
2023-12-20T06:36:45.920Z,4.42
2023-12-20T06:39:13.995Z,4.35
2023-12-20T06:41:41.349Z,4.40
2023-12-20T06:44:11.224Z,4.34
2023-12-20T06:46:38.337Z,4.41
2023-12-20T06:49:05.499Z,4.34
2023-12-20T06:51:32.831Z,4.27
2023-12-20T06:54:03.965Z,4.32
2023-12-20T06:56:33.874Z,4.36
2023-12-20T06:59:01.004Z,4.35
2023-12-20T07:01:28.258Z,4.41
2023-12-20T07:03:55.548Z,4.43
2023-12-20T07:06:24.116Z,4.40
2023-12-20T07:08:53.181Z,4.44
2023-12-20T07:11:20.460Z,4.46
2023-12-20T07:13:47.527Z,4.47
2023-12-20T07:16:14.655Z,4.46
2023-12-20T07:18:42.025Z,4.48
2023-12-20T07:21:09.350Z,4.49
2023-12-20T07:23:36.428Z,4.43
2023-12-20T07:26:03.810Z,4.51
2023-12-20T07:28:32.195Z,4.57
2023-12-20T07:31:02.336Z,4.51
2023-12-20T07:33:38.759Z,4.52
2023-12-20T07:36:08.802Z,4.58
2023-12-20T07:38:40.753Z,4.49
2023-12-20T07:41:13.718Z,4.56
2023-12-20T07:43:49.016Z,4.53
2023-12-20T07:46:26.970Z,4.50
2023-12-20T07:49:00.014Z,4.57
2023-12-20T07:51:33.692Z,4.61
2023-12-20T07:54:05.794Z,4.60
2023-12-20T07:56:38.913Z,4.58
2023-12-20T07:59:25.954Z,4.61
2023-12-20T08:02:02.218Z,4.65
2023-12-20T08:04:34.548Z,4.60
2023-12-20T08:07:02.759Z,4.63
2023-12-20T08:09:31.908Z,4.67
2023-12-20T08:12:01.255Z,4.66
2023-12-20T08:14:29.664Z,4.70
2023-12-20T08:17:02.100Z,4.67
2023-12-20T08:19:33.839Z,4.70
2023-12-20T08:22:01.756Z,4.70
2023-12-20T08:24:30.839Z,4.69
2023-12-20T08:26:58.869Z,4.71
2023-12-20T08:29:26.268Z,4.67
2023-12-20T08:31:55.426Z,4.68
2023-12-20T08:34:23.097Z,4.69
2023-12-20T08:36:52.612Z,4.67
2023-12-20T08:39:20.328Z,4.61
2023-12-20T08:41:47.696Z,4.68
2023-12-20T08:44:15.065Z,4.76
2023-12-20T08:46:42.297Z,4.73
2023-12-20T08:49:11.403Z,4.77
2023-12-20T08:51:44.448Z,4.80
2023-12-20T08:54:11.836Z,4.80
2023-12-20T08:56:39.332Z,4.84
2023-12-20T08:59:11.862Z,4.82
2023-12-20T09:01:39.220Z,4.83
2023-12-20T09:04:07.881Z,4.84
2023-12-20T09:06:38.567Z,4.81
2023-12-20T09:09:06.127Z,4.83
2023-12-20T09:11:33.548Z,4.80
2023-12-20T09:14:00.969Z,4.85
2023-12-20T09:16:28.473Z,4.94
2023-12-20T09:18:55.914Z,4.95
2023-12-20T09:21:23.316Z,4.92
2023-12-20T09:23:50.963Z,4.98
2023-12-20T09:26:18.189Z,4.93
2023-12-20T09:28:45.432Z,4.97
2023-12-20T09:31:12.607Z,4.98
2023-12-20T09:33:39.814Z,4.97
2023-12-20T09:36:07.474Z,4.92
2023-12-20T09:38:34.906Z,5.05
2023-12-20T09:41:05.154Z,5.07
2023-12-20T09:43:32.514Z,5.07
2023-12-20T09:46:03.650Z,5.08
2023-12-20T09:48:31.746Z,5.08
2023-12-20T09:50:59.008Z,5.12
2023-12-20T09:53:30.410Z,5.15
2023-12-20T09:56:03.969Z,5.14
2023-12-20T09:58:31.135Z,5.11
2023-12-20T10:00:58.421Z,5.20
2023-12-20T10:03:27.689Z,5.19
2023-12-20T10:05:58.148Z,5.17
2023-12-20T10:08:25.852Z,5.14
2023-12-20T10:10:53.248Z,5.18
2023-12-20T10:13:20.417Z,5.21
2023-12-20T10:15:47.697Z,5.27
2023-12-20T10:18:15.063Z,5.19
2023-12-20T10:20:44.037Z,5.22
2023-12-20T10:23:12.199Z,5.30
2023-12-20T10:25:39.453Z,5.27
2023-12-20T10:28:28.639Z,5.26
2023-12-20T10:30:59.763Z,5.22
2023-12-20T10:33:28.586Z,5.25
2023-12-20T10:35:57.018Z,5.31
2023-12-20T10:38:24.864Z,5.34
2023-12-20T10:40:56.190Z,5.43
2023-12-20T10:43:24.160Z,5.43
2023-12-20T10:45:51.495Z,5.44
2023-12-20T10:48:18.976Z,5.43
2023-12-20T10:50:46.450Z,5.41
2023-12-20T10:53:14.389Z,5.48
2023-12-20T10:55:41.725Z,5.46
2023-12-20T10:58:10.239Z,5.43
2023-12-20T11:00:44.576Z,5.32
2023-12-20T11:03:13.360Z,5.36
2023-12-20T11:05:55.049Z,5.44
2023-12-20T11:08:29.956Z,5.41
2023-12-20T11:11:07.831Z,5.43
2023-12-20T11:13:38.681Z,5.50
2023-12-20T11:16:07.191Z,5.55
2023-12-20T11:18:34.582Z,5.64
2023-12-20T11:21:04.546Z,5.63
2023-12-20T11:23:34.925Z,5.70
2023-12-20T11:26:02.973Z,5.74
2023-12-20T11:28:33.791Z,5.76
2023-12-20T11:31:05.438Z,5.72
2023-12-20T11:33:37.662Z,5.71
2023-12-20T11:36:05.290Z,5.73
2023-12-20T11:38:39.070Z,5.72
2023-12-20T11:41:09.454Z,5.68
2023-12-20T11:43:40.687Z,5.63
2023-12-20T11:46:11.511Z,5.60
2023-12-20T11:48:39.858Z,5.49
2023-12-20T11:51:11.404Z,5.51
2023-12-20T11:53:38.846Z,5.42
2023-12-20T11:56:07.726Z,5.36
2023-12-20T11:58:35.291Z,5.37
2023-12-20T12:01:06.166Z,5.31
2023-12-20T12:03:34.055Z,5.26
2023-12-20T12:06:02.191Z,5.32
2023-12-20T12:08:29.270Z,5.32
2023-12-20T12:10:56.342Z,5.32
2023-12-20T12:13:23.457Z,5.29
2023-12-20T12:15:51.397Z,5.29
2023-12-20T12:18:18.796Z,5.28
2023-12-20T12:20:45.930Z,5.27
2023-12-20T12:23:13.057Z,5.30
2023-12-20T12:25:42.812Z,5.27
2023-12-20T12:28:11.688Z,5.25
2023-12-20T12:30:43.157Z,5.22
2023-12-20T12:33:14.036Z,5.22
2023-12-20T12:35:44.678Z,5.24
2023-12-20T12:38:17.025Z,5.19
2023-12-20T12:40:45.059Z,5.21
2023-12-20T12:43:12.121Z,5.22
2023-12-20T12:45:39.179Z,5.22
2023-12-20T12:48:10.576Z,5.23
2023-12-20T12:50:37.645Z,5.23
2023-12-20T12:53:04.919Z,5.26
2023-12-20T12:55:32.125Z,5.28
2023-12-20T12:57:59.248Z,5.26
2023-12-20T13:00:27.405Z,5.24
2023-12-20T13:02:57.757Z,5.23
2023-12-20T13:05:25.005Z,5.23
2023-12-20T13:07:52.806Z,5.26
2023-12-20T13:10:19.993Z,5.33
2023-12-20T13:12:47.320Z,5.31
2023-12-20T13:15:14.722Z,5.31
2023-12-20T13:17:45.197Z,5.32
2023-12-20T13:20:12.717Z,5.29
2023-12-20T13:22:39.843Z,5.28
2023-12-20T13:25:07.639Z,5.21
2023-12-20T13:27:34.895Z,5.17
2023-12-20T13:30:02.279Z,5.17
2023-12-20T13:32:31.073Z,5.15
2023-12-20T13:34:58.550Z,5.15
2023-12-20T13:37:26.232Z,5.14
2023-12-20T13:39:53.406Z,5.21
2023-12-20T13:42:21.742Z,5.14
2023-12-20T13:44:49.014Z,5.11
2023-12-20T13:47:16.038Z,5.07
2023-12-20T13:49:43.156Z,5.08
2023-12-20T13:52:10.278Z,5.08
2023-12-20T13:54:37.274Z,5.05
2023-12-20T13:57:12.189Z,5.04
2023-12-20T13:59:43.920Z,5.07
2023-12-20T14:02:11.057Z,5.08
2023-12-20T14:04:43.116Z,5.04
2023-12-20T14:07:13.093Z,5.03
2023-12-20T14:09:47.237Z,5.05
2023-12-20T14:12:15.185Z,4.94
2023-12-20T14:14:42.508Z,4.92
2023-12-20T14:17:10.372Z,4.92
2023-12-20T14:19:41.075Z,4.93
2023-12-20T14:22:08.343Z,4.88
2023-12-20T14:24:37.317Z,4.76
2023-12-20T14:27:04.532Z,4.66
2023-12-20T14:29:31.601Z,4.63
2023-12-20T14:32:00.864Z,4.66
2023-12-20T14:34:28.293Z,4.69
2023-12-20T14:36:55.647Z,4.72
2023-12-20T14:39:24.227Z,4.69
2023-12-20T14:41:51.391Z,4.62
2023-12-20T14:44:19.019Z,4.64
2023-12-20T14:46:46.053Z,4.55
2023-12-20T14:49:13.373Z,4.52
2023-12-20T14:51:40.431Z,4.43
2023-12-20T14:54:11.785Z,4.48
2023-12-20T14:56:39.011Z,4.42
2023-12-20T14:59:09.457Z,4.38
2023-12-20T15:04:05.451Z,4.30
2023-12-20T15:06:33.657Z,4.24
2023-12-20T15:09:01.336Z,4.18
2023-12-20T15:11:28.478Z,4.06
2023-12-20T15:13:59.374Z,4.14
2023-12-20T15:16:26.957Z,4.03
2023-12-20T15:18:56.283Z,3.99
2023-12-20T15:21:32.601Z,4.05
2023-12-20T15:24:15.387Z,4.04
2023-12-20T15:26:43.873Z,3.99
2023-12-20T15:29:13.263Z,4.07
2023-12-20T15:31:45.315Z,4.15
2023-12-20T15:34:12.655Z,4.14
2023-12-20T15:36:40.556Z,4.06
2023-12-20T15:39:09.992Z,4.02
2023-12-20T15:41:37.059Z,3.95
2023-12-20T15:44:04.194Z,4.05
2023-12-20T15:46:31.335Z,3.95
2023-12-20T15:48:58.484Z,3.98
